sensor_id;sensor_type;location;lat;lon;timestamp;pressure;altitude;pressure_sealevel;temperature;humidity
43701;BME280;58809;47.984;7.964;2022-12-29T00:00:12;96890.63;;;12.75;53.58
43701;BME280;58809;47.984;7.964;2022-12-29T00:03:14;96886.72;;;12.71;53.89
43701;BME280;58809;47.984;7.964;2022-12-29T00:06:18;96911.03;;;12.68;53.92
43701;BME280;58809;47.984;7.964;2022-12-29T00:09:20;96931.88;;;12.64;54.42
43701;BME280;58809;47.984;7.964;2022-12-29T00:12:21;96909.41;;;12.67;53.83
43701;BME280;58809;47.984;7.964;2022-12-29T00:15:23;96908.19;;;12.69;53.59
43701;BME280;58809;47.984;7.964;2022-12-29T00:18:40;96890.41;;;12.63;53.40
43701;BME280;58809;47.984;7.964;2022-12-29T00:21:41;96882.84;;;12.67;53.67
43701;BME280;58809;47.984;7.964;2022-12-29T00:25:02;96872.66;;;12.64;53.54
43701;BME280;58809;47.984;7.964;2022-12-29T00:28:22;96884.88;;;12.51;53.76
43701;BME280;58809;47.984;7.964;2022-12-29T00:31:42;96861.81;;;12.59;53.33
43701;BME280;58809;47.984;7.964;2022-12-29T00:35:03;96839.38;;;12.68;52.94
43701;BME280;58809;47.984;7.964;2022-12-29T00:38:12;96870.38;;;12.67;52.79
43701;BME280;58809;47.984;7.964;2022-12-29T00:41:32;96878.97;;;12.76;52.32
43701;BME280;58809;47.984;7.964;2022-12-29T00:44:53;96860.63;;;12.81;51.88
43701;BME280;58809;47.984;7.964;2022-12-29T00:47:54;96883.09;;;12.79;52.10
43701;BME280;58809;47.984;7.964;2022-12-29T00:50:56;96858.78;;;12.75;51.98
43701;BME280;58809;47.984;7.964;2022-12-29T00:53:57;96853.44;;;12.82;51.20
43701;BME280;58809;47.984;7.964;2022-12-29T00:57:00;96877.75;;;12.72;51.62
43701;BME280;58809;47.984;7.964;2022-12-29T01:00:03;96828.16;;;12.79;51.22
43701;BME280;58809;47.984;7.964;2022-12-29T01:03:04;96869.19;;;12.83;51.29
43701;BME280;58809;47.984;7.964;2022-12-29T01:06:09;96874.72;;;12.75;51.49
43701;BME280;58809;47.984;7.964;2022-12-29T01:09:11;96857.13;;;12.87;50.89
43701;BME280;58809;47.984;7.964;2022-12-29T01:12:33;96861.84;;;12.85;51.25
43701;BME280;58809;47.984;7.964;2022-12-29T01:15:52;96873.47;;;12.78;51.11
43701;BME280;58809;47.984;7.964;2022-12-29T01:18:54;96876.31;;;12.76;51.53
43701;BME280;58809;47.984;7.964;2022-12-29T01:21:55;96885.75;;;12.79;51.38
43701;BME280;58809;47.984;7.964;2022-12-29T01:24:57;96882.88;;;12.74;51.72
43701;BME280;58809;47.984;7.964;2022-12-29T01:27:58;96886.72;;;12.58;52.32
43701;BME280;58809;47.984;7.964;2022-12-29T01:31:01;96873.81;;;12.41;53.07
43701;BME280;58809;47.984;7.964;2022-12-29T01:34:03;96883.81;;;12.39;53.40
43701;BME280;58809;47.984;7.964;2022-12-29T01:37:06;96871.75;;;12.30;53.68
43701;BME280;58809;47.984;7.964;2022-12-29T01:40:08;96874.56;;;12.15;54.29
43701;BME280;58809;47.984;7.964;2022-12-29T01:43:12;96884.16;;;12.09;54.38
43701;BME280;58809;47.984;7.964;2022-12-29T01:49:29;96896.16;;;12.05;54.62
43701;BME280;58809;47.984;7.964;2022-12-29T01:52:33;96911.06;;;12.06;54.47
43701;BME280;58809;47.984;7.964;2022-12-29T01:55:40;96905.56;;;12.08;54.85
43701;BME280;58809;47.984;7.964;2022-12-29T01:58:46;96905.56;;;12.08;55.08
43701;BME280;58809;47.984;7.964;2022-12-29T02:01:48;96904.09;;;11.99;55.31
43701;BME280;58809;47.984;7.964;2022-12-29T02:04:52;96912.44;;;11.96;55.30
43701;BME280;58809;47.984;7.964;2022-12-29T02:07:54;96901.41;;;11.92;55.67
43701;BME280;58809;47.984;7.964;2022-12-29T02:10:58;96897.97;;;11.98;55.59
43701;BME280;58809;47.984;7.964;2022-12-29T02:14:00;96900.38;;;11.93;55.60
43701;BME280;58809;47.984;7.964;2022-12-29T02:17:17;96898.66;;;11.79;56.14
43701;BME280;58809;47.984;7.964;2022-12-29T02:24:26;96869.81;;;11.62;56.80
43701;BME280;58809;47.984;7.964;2022-12-29T02:37:30;96872.41;;;11.90;56.89
43701;BME280;58809;47.984;7.964;2022-12-29T02:40:43;96883.41;;;11.87;57.27
43701;BME280;58809;47.984;7.964;2022-12-29T02:43:52;96863.19;;;11.80;57.32
43701;BME280;58809;47.984;7.964;2022-12-29T02:47:16;96897.25;;;11.83;57.26
43701;BME280;58809;47.984;7.964;2022-12-29T02:50:28;96891.81;;;11.91;57.32
43701;BME280;58809;47.984;7.964;2022-12-29T02:53:34;96898.94;;;11.90;57.86
43701;BME280;58809;47.984;7.964;2022-12-29T02:56:56;96895.22;;;11.85;57.79
43701;BME280;58809;47.984;7.964;2022-12-29T03:00:02;96907.06;;;11.89;58.00
43701;BME280;58809;47.984;7.964;2022-12-29T03:03:16;96876.66;;;11.85;57.93
43701;BME280;58809;47.984;7.964;2022-12-29T03:13:35;96896.03;;;11.85;58.18
43701;BME280;58809;47.984;7.964;2022-12-29T03:17:25;96904.97;;;11.78;58.72
43701;BME280;58809;47.984;7.964;2022-12-29T03:20:36;96895.38;;;11.77;59.12
43701;BME280;58809;47.984;7.964;2022-12-29T03:23:42;96883.13;;;11.75;59.31
43701;BME280;58809;47.984;7.964;2022-12-29T03:26:46;96905.75;;;11.71;59.45
43701;BME280;58809;47.984;7.964;2022-12-29T03:29:52;96865.19;;;11.71;59.42
43701;BME280;58809;47.984;7.964;2022-12-29T03:32:59;96866.59;;;11.73;59.42
43701;BME280;58809;47.984;7.964;2022-12-29T03:36:07;96848.63;;;11.62;60.03
43701;BME280;58809;47.984;7.964;2022-12-29T03:39:11;96851.59;;;11.46;60.48
43701;BME280;58809;47.984;7.964;2022-12-29T03:42:16;96840.78;;;11.47;60.13
43701;BME280;58809;47.984;7.964;2022-12-29T03:45:19;96837.09;;;11.42;60.21
43701;BME280;58809;47.984;7.964;2022-12-29T03:48:20;96838.88;;;11.34;60.50
43701;BME280;58809;47.984;7.964;2022-12-29T03:51:24;96838.50;;;11.38;60.69
43701;BME280;58809;47.984;7.964;2022-12-29T03:54:29;96808.34;;;11.39;60.65
43701;BME280;58809;47.984;7.964;2022-12-29T03:57:31;96844.44;;;11.46;60.43
43701;BME280;58809;47.984;7.964;2022-12-29T04:00:39;96849.78;;;11.53;60.43
43701;BME280;58809;47.984;7.964;2022-12-29T04:03:41;96826.00;;;11.60;59.96
43701;BME280;58809;47.984;7.964;2022-12-29T04:06:44;96847.41;;;11.65;59.40
43701;BME280;58809;47.984;7.964;2022-12-29T04:09:46;96867.97;;;11.56;60.31
43701;BME280;58809;47.984;7.964;2022-12-29T04:12:53;96867.59;;;11.66;60.27
43701;BME280;58809;47.984;7.964;2022-12-29T04:15:56;96850.31;;;11.77;60.12
43701;BME280;58809;47.984;7.964;2022-12-29T04:18:57;96846.63;;;11.78;59.63
43701;BME280;58809;47.984;7.964;2022-12-29T04:21:59;96836.88;;;11.78;59.83
43701;BME280;58809;47.984;7.964;2022-12-29T04:25:01;96855.00;;;11.74;60.16
43701;BME280;58809;47.984;7.964;2022-12-29T04:28:03;96856.19;;;11.72;60.44
43701;BME280;58809;47.984;7.964;2022-12-29T04:31:23;96869.88;;;11.69;60.55
43701;BME280;58809;47.984;7.964;2022-12-29T04:34:25;96851.13;;;11.70;60.85
43701;BME280;58809;47.984;7.964;2022-12-29T04:37:27;96859.66;;;11.66;61.03
43701;BME280;58809;47.984;7.964;2022-12-29T04:40:29;96860.13;;;11.83;60.76
43701;BME280;58809;47.984;7.964;2022-12-29T04:43:31;96847.50;;;11.85;61.09
43701;BME280;58809;47.984;7.964;2022-12-29T04:46:49;96861.34;;;11.80;61.05
43701;BME280;58809;47.984;7.964;2022-12-29T04:50:03;96881.09;;;11.78;61.19
43701;BME280;58809;47.984;7.964;2022-12-29T04:53:18;96832.41;;;11.85;60.91
43701;BME280;58809;47.984;7.964;2022-12-29T04:56:20;96821.59;;;11.80;60.70
43701;BME280;58809;47.984;7.964;2022-12-29T04:59:22;96825.22;;;11.72;61.37
43701;BME280;58809;47.984;7.964;2022-12-29T05:02:27;96839.09;;;11.74;60.90
43701;BME280;58809;47.984;7.964;2022-12-29T05:05:30;96826.53;;;11.90;60.16
43701;BME280;58809;47.984;7.964;2022-12-29T05:08:33;96824.13;;;11.95;60.09
43701;BME280;58809;47.984;7.964;2022-12-29T05:11:36;96834.94;;;12.00;60.25
43701;BME280;58809;47.984;7.964;2022-12-29T05:14:38;96833.50;;;11.98;59.92
43701;BME280;58809;47.984;7.964;2022-12-29T05:17:39;96837.19;;;12.03;59.92
43701;BME280;58809;47.984;7.964;2022-12-29T05:20:42;96827.22;;;12.05;59.51
43701;BME280;58809;47.984;7.964;2022-12-29T05:23:44;96823.53;;;12.06;59.83
43701;BME280;58809;47.984;7.964;2022-12-29T05:26:46;96818.22;;;12.06;59.81
43701;BME280;58809;47.984;7.964;2022-12-29T05:30:20;96805.78;;;12.00;59.78
43701;BME280;58809;47.984;7.964;2022-12-29T05:33:21;96806.59;;;12.01;59.58
43701;BME280;58809;47.984;7.964;2022-12-29T05:36:24;96814.16;;;12.04;59.37
43701;BME280;58809;47.984;7.964;2022-12-29T05:39:30;96814.56;;;12.07;59.43
43701;BME280;58809;47.984;7.964;2022-12-29T05:42:35;96783.13;;;12.04;59.14
43701;BME280;58809;47.984;7.964;2022-12-29T05:45:53;96814.16;;;12.10;59.12
43701;BME280;58809;47.984;7.964;2022-12-29T05:49:06;96797.88;;;12.20;58.73
43701;BME280;58809;47.984;7.964;2022-12-29T05:52:28;96819.50;;;12.17;59.10
43701;BME280;58809;47.984;7.964;2022-12-29T05:55:30;96815.59;;;12.20;58.33
43701;BME280;58809;47.984;7.964;2022-12-29T05:58:32;96790.53;;;12.29;58.23
43701;BME280;58809;47.984;7.964;2022-12-29T06:01:34;96800.09;;;12.23;58.64
43701;BME280;58809;47.984;7.964;2022-12-29T06:04:36;96801.94;;;12.16;58.80
43701;BME280;58809;47.984;7.964;2022-12-29T06:07:38;96817.84;;;12.16;58.40
43701;BME280;58809;47.984;7.964;2022-12-29T06:10:39;96800.75;;;12.25;58.17
43701;BME280;58809;47.984;7.964;2022-12-29T06:13:42;96784.81;;;12.19;58.11
43701;BME280;58809;47.984;7.964;2022-12-29T06:16:44;96779.91;;;12.16;58.39
43701;BME280;58809;47.984;7.964;2022-12-29T06:19:47;96784.59;;;12.13;57.85
43701;BME280;58809;47.984;7.964;2022-12-29T06:22:49;96800.47;;;12.00;58.28
43701;BME280;58809;47.984;7.964;2022-12-29T06:25:51;96775.59;;;11.94;58.00
43701;BME280;58809;47.984;7.964;2022-12-29T06:28:53;96782.91;;;11.92;58.06
43701;BME280;58809;47.984;7.964;2022-12-29T06:31:54;96795.16;;;11.93;57.72
43701;BME280;58809;47.984;7.964;2022-12-29T06:34:59;96796.91;;;11.86;58.47
43701;BME280;58809;47.984;7.964;2022-12-29T06:38:01;96786.50;;;11.78;58.25
43701;BME280;58809;47.984;7.964;2022-12-29T06:41:03;96780.97;;;11.73;58.79
43701;BME280;58809;47.984;7.964;2022-12-29T06:44:31;96781.00;;;11.86;57.84
43701;BME280;58809;47.984;7.964;2022-12-29T06:47:35;96781.28;;;11.91;57.59
43701;BME280;58809;47.984;7.964;2022-12-29T06:50:37;96782.75;;;12.07;57.21
43701;BME280;58809;47.984;7.964;2022-12-29T06:53:38;96783.78;;;12.13;56.88
43701;BME280;58809;47.984;7.964;2022-12-29T06:56:40;96781.97;;;12.20;56.63
43701;BME280;58809;47.984;7.964;2022-12-29T06:59:41;96800.31;;;12.28;56.42
43701;BME280;58809;47.984;7.964;2022-12-29T07:02:43;96783.63;;;12.35;56.49
43701;BME280;58809;47.984;7.964;2022-12-29T07:05:45;96785.63;;;12.32;56.38
43701;BME280;58809;47.984;7.964;2022-12-29T07:08:46;96796.88;;;12.28;56.97
43701;BME280;58809;47.984;7.964;2022-12-29T07:11:48;96794.44;;;12.33;56.63
43701;BME280;58809;47.984;7.964;2022-12-29T07:14:49;96801.38;;;12.47;56.18
43701;BME280;58809;47.984;7.964;2022-12-29T07:17:51;96794.44;;;12.60;56.00
43701;BME280;58809;47.984;7.964;2022-12-29T07:20:53;96787.09;;;12.62;55.70
43701;BME280;58809;47.984;7.964;2022-12-29T07:23:54;96792.19;;;12.63;55.54
43701;BME280;58809;47.984;7.964;2022-12-29T07:26:56;96796.69;;;12.63;55.83
43701;BME280;58809;47.984;7.964;2022-12-29T07:29:58;96806.91;;;12.59;56.17
43701;BME280;58809;47.984;7.964;2022-12-29T07:33:03;96804.44;;;12.64;55.64
43701;BME280;58809;47.984;7.964;2022-12-29T07:36:05;96812.41;;;12.71;55.69
43701;BME280;58809;47.984;7.964;2022-12-29T07:39:07;96808.13;;;12.70;55.95
43701;BME280;58809;47.984;7.964;2022-12-29T07:42:08;96832.03;;;12.70;56.22
43701;BME280;58809;47.984;7.964;2022-12-29T07:45:17;96802.19;;;12.81;55.90
43701;BME280;58809;47.984;7.964;2022-12-29T07:48:27;96849.81;;;12.89;55.68
43701;BME280;58809;47.984;7.964;2022-12-29T07:51:29;96817.53;;;12.79;56.64
43701;BME280;58809;47.984;7.964;2022-12-29T07:54:30;96819.16;;;12.74;56.68
43701;BME280;58809;47.984;7.964;2022-12-29T07:57:33;96836.31;;;12.78;56.46
43701;BME280;58809;47.984;7.964;2022-12-29T08:00:35;96839.97;;;12.83;56.33
43701;BME280;58809;47.984;7.964;2022-12-29T08:03:37;96817.72;;;12.78;56.75
43701;BME280;58809;47.984;7.964;2022-12-29T08:06:39;96862.44;;;12.74;56.61
43701;BME280;58809;47.984;7.964;2022-12-29T08:09:41;96867.34;;;12.90;56.38
43701;BME280;58809;47.984;7.964;2022-12-29T08:12:43;96842.66;;;12.90;56.49
43701;BME280;58809;47.984;7.964;2022-12-29T08:15:45;96851.81;;;12.87;56.64
43701;BME280;58809;47.984;7.964;2022-12-29T08:18:46;96866.94;;;12.87;56.38
43701;BME280;58809;47.984;7.964;2022-12-29T08:21:48;96862.66;;;12.86;56.68
43701;BME280;58809;47.984;7.964;2022-12-29T08:24:50;96855.94;;;12.90;56.49
43701;BME280;58809;47.984;7.964;2022-12-29T08:27:51;96853.28;;;12.90;56.63
43701;BME280;58809;47.984;7.964;2022-12-29T08:30:53;96927.63;;;12.90;56.86
43701;BME280;58809;47.984;7.964;2022-12-29T08:33:55;96882.91;;;12.80;57.61
43701;BME280;58809;47.984;7.964;2022-12-29T08:36:56;96888.13;;;12.40;60.21
43701;BME280;58809;47.984;7.964;2022-12-29T08:39:58;96919.53;;;12.43;60.16
43701;BME280;58809;47.984;7.964;2022-12-29T08:43:01;96890.59;;;12.55;59.57
43701;BME280;58809;47.984;7.964;2022-12-29T08:46:03;96909.81;;;12.64;59.82
43701;BME280;58809;47.984;7.964;2022-12-29T08:49:05;96895.91;;;12.62;60.18
43701;BME280;58809;47.984;7.964;2022-12-29T08:52:07;96895.13;;;12.68;60.06
43701;BME280;58809;47.984;7.964;2022-12-29T08:55:09;96871.84;;;12.77;59.83
43701;BME280;58809;47.984;7.964;2022-12-29T08:58:14;96903.91;;;12.88;59.31
43701;BME280;58809;47.984;7.964;2022-12-29T09:01:20;96896.16;;;12.94;59.18
43701;BME280;58809;47.984;7.964;2022-12-29T09:04:22;96883.72;;;13.01;59.06
43701;BME280;58809;47.984;7.964;2022-12-29T09:07:25;96904.53;;;13.04;59.06
43701;BME280;58809;47.984;7.964;2022-12-29T09:10:27;96910.03;;;12.89;60.18
43701;BME280;58809;47.984;7.964;2022-12-29T09:13:28;96901.03;;;12.70;60.82
43701;BME280;58809;47.984;7.964;2022-12-29T09:16:30;96895.28;;;12.60;61.36
43701;BME280;58809;47.984;7.964;2022-12-29T09:19:32;96910.59;;;12.51;61.64
43701;BME280;58809;47.984;7.964;2022-12-29T09:22:34;96921.63;;;12.55;61.83
43701;BME280;58809;47.984;7.964;2022-12-29T09:25:36;96935.47;;;12.43;62.65
43701;BME280;58809;47.984;7.964;2022-12-29T09:28:37;96930.56;;;12.40;62.79
43701;BME280;58809;47.984;7.964;2022-12-29T09:31:39;96929.31;;;12.29;64.31
43701;BME280;58809;47.984;7.964;2022-12-29T09:34:41;96927.47;;;12.30;64.35
43701;BME280;58809;47.984;7.964;2022-12-29T09:37:43;96936.03;;;12.32;64.80
43701;BME280;58809;47.984;7.964;2022-12-29T09:40:49;96937.88;;;12.31;65.01
43701;BME280;58809;47.984;7.964;2022-12-29T09:46:54;96985.94;;;12.08;68.05
43701;BME280;58809;47.984;7.964;2022-12-29T09:50:17;96970.53;;;11.90;69.73
43701;BME280;58809;47.984;7.964;2022-12-29T09:56:27;96956.00;;;11.86;71.75
43701;BME280;58809;47.984;7.964;2022-12-29T09:59:39;96953.16;;;11.88;71.88
43701;BME280;58809;47.984;7.964;2022-12-29T10:03:40;96969.06;;;11.88;72.52
43701;BME280;58809;47.984;7.964;2022-12-29T10:06:54;96958.22;;;11.83;72.70
43701;BME280;58809;47.984;7.964;2022-12-29T10:23:44;96931.50;;;11.84;74.53
43701;BME280;58809;47.984;7.964;2022-12-29T10:26:50;96924.72;;;11.75;74.96
43701;BME280;58809;47.984;7.964;2022-12-29T10:29:56;96925.09;;;11.65;75.10
43701;BME280;58809;47.984;7.964;2022-12-29T10:33:02;96926.47;;;11.61;75.99
43701;BME280;58809;47.984;7.964;2022-12-29T10:36:18;96913.66;;;11.65;75.13
43701;BME280;58809;47.984;7.964;2022-12-29T10:39:30;96926.16;;;11.71;74.56
43701;BME280;58809;47.984;7.964;2022-12-29T10:42:36;96902.91;;;11.73;74.77
43701;BME280;58809;47.984;7.964;2022-12-29T10:45:39;96910.44;;;11.69;75.26
43701;BME280;58809;47.984;7.964;2022-12-29T10:48:41;96917.53;;;11.62;75.64
43701;BME280;58809;47.984;7.964;2022-12-29T10:51:48;96928.72;;;11.58;75.53
43701;BME280;58809;47.984;7.964;2022-12-29T10:54:56;96928.03;;;11.49;76.54
43701;BME280;58809;47.984;7.964;2022-12-29T10:58:02;96901.94;;;11.46;77.21
43701;BME280;58809;47.984;7.964;2022-12-29T11:01:09;96898.97;;;11.62;77.45
43701;BME280;58809;47.984;7.964;2022-12-29T11:04:30;96881.91;;;11.71;77.25
43701;BME280;58809;47.984;7.964;2022-12-29T11:07:35;96882.75;;;11.79;76.09
43701;BME280;58809;47.984;7.964;2022-12-29T11:10:40;96880.22;;;11.99;75.25
43701;BME280;58809;47.984;7.964;2022-12-29T11:14:02;96865.59;;;12.16;74.15
43701;BME280;58809;47.984;7.964;2022-12-29T11:17:04;96876.25;;;12.29;72.92
43701;BME280;58809;47.984;7.964;2022-12-29T11:23:37;96875.09;;;12.65;71.71
43701;BME280;58809;47.984;7.964;2022-12-29T11:26:39;96879.16;;;12.55;71.31
43701;BME280;58809;47.984;7.964;2022-12-29T11:29:43;96878.53;;;12.52;70.15
43701;BME280;58809;47.984;7.964;2022-12-29T11:32:51;96860.38;;;12.56;68.73
43701;BME280;58809;47.984;7.964;2022-12-29T11:35:57;96879.59;;;12.71;68.56
43701;BME280;58809;47.984;7.964;2022-12-29T11:39:00;96877.97;;;12.90;68.76
43701;BME280;58809;47.984;7.964;2022-12-29T11:42:03;96874.50;;;12.90;67.98
43701;BME280;58809;47.984;7.964;2022-12-29T11:45:26;96874.31;;;12.92;67.65
43701;BME280;58809;47.984;7.964;2022-12-29T11:48:33;96883.28;;;13.10;66.40
43701;BME280;58809;47.984;7.964;2022-12-29T11:51:44;96833.22;;;13.14;66.75
43701;BME280;58809;47.984;7.964;2022-12-29T11:54:47;96852.63;;;13.35;66.06
43701;BME280;58809;47.984;7.964;2022-12-29T11:57:50;96862.03;;;13.24;65.94
43701;BME280;58809;47.984;7.964;2022-12-29T12:00:52;96889.00;;;13.14;66.79
43701;BME280;58809;47.984;7.964;2022-12-29T12:04:06;96854.28;;;13.09;65.45
43701;BME280;58809;47.984;7.964;2022-12-29T12:07:20;96864.69;;;12.90;65.70
43701;BME280;58809;47.984;7.964;2022-12-29T12:10:31;96858.34;;;12.78;66.16
43701;BME280;58809;47.984;7.964;2022-12-29T12:13:40;96858.16;;;12.73;66.30
43701;BME280;58809;47.984;7.964;2022-12-29T12:16:50;96852.22;;;12.64;66.66
43701;BME280;58809;47.984;7.964;2022-12-29T12:23:16;96848.75;;;12.90;65.98
43701;BME280;58809;47.984;7.964;2022-12-29T12:26:30;96826.28;;;12.80;67.43
43701;BME280;58809;47.984;7.964;2022-12-29T12:29:43;96832.66;;;12.99;67.34
43701;BME280;58809;47.984;7.964;2022-12-29T12:41:07;96828.75;;;12.88;66.83
43701;BME280;58809;47.984;7.964;2022-12-29T12:43:39;96811.59;;;12.77;67.44
43701;BME280;58809;47.984;7.964;2022-12-29T12:46:49;96811.78;;;12.89;67.51
43701;BME280;58809;47.984;7.964;2022-12-29T12:50:02;96813.22;;;13.05;66.79
43701;BME280;58809;47.984;7.964;2022-12-29T13:00:17;96827.63;;;13.62;64.27
43701;BME280;58809;47.984;7.964;2022-12-29T13:03:49;96823.41;;;13.41;63.83
43701;BME280;58809;47.984;7.964;2022-12-29T13:10:36;96792.97;;;13.10;64.87
43701;BME280;58809;47.984;7.964;2022-12-29T13:30:17;96777.69;;;12.79;65.89
43701;BME280;58809;47.984;7.964;2022-12-29T13:36:53;96784.00;;;12.58;67.20
43701;BME280;58809;47.984;7.964;2022-12-29T13:40:13;96789.34;;;12.51;68.31
43701;BME280;58809;47.984;7.964;2022-12-29T13:43:18;96783.41;;;12.43;67.81
43701;BME280;58809;47.984;7.964;2022-12-29T13:46:28;96801.56;;;12.39;68.47
43701;BME280;58809;47.984;7.964;2022-12-29T13:49:32;96777.88;;;12.38;68.51
43701;BME280;58809;47.984;7.964;2022-12-29T13:52:36;96793.38;;;12.34;68.96
43701;BME280;58809;47.984;7.964;2022-12-29T13:58:57;96800.34;;;12.35;69.40
43701;BME280;58809;47.984;7.964;2022-12-29T14:02:17;96846.03;;;12.30;69.58
43701;BME280;58809;47.984;7.964;2022-12-29T14:08:23;96804.59;;;12.23;70.00
43701;BME280;58809;47.984;7.964;2022-12-29T14:11:34;96815.00;;;12.18;70.17
43701;BME280;58809;47.984;7.964;2022-12-29T14:14:41;96806.84;;;12.12;70.49
43701;BME280;58809;47.984;7.964;2022-12-29T14:17:43;96811.72;;;12.16;71.08
43701;BME280;58809;47.984;7.964;2022-12-29T14:20:57;96816.81;;;12.10;71.37
43701;BME280;58809;47.984;7.964;2022-12-29T14:24:26;96814.19;;;12.17;70.88
43701;BME280;58809;47.984;7.964;2022-12-29T14:30:47;96829.50;;;12.22;71.13
43701;BME280;58809;47.984;7.964;2022-12-29T14:37:24;96825.19;;;12.14;71.24
43701;BME280;58809;47.984;7.964;2022-12-29T14:40:27;96836.00;;;12.12;70.82
43701;BME280;58809;47.984;7.964;2022-12-29T14:43:28;96841.28;;;12.06;70.93
43701;BME280;58809;47.984;7.964;2022-12-29T14:49:49;96833.53;;;12.04;70.73
43701;BME280;58809;47.984;7.964;2022-12-29T14:53:00;96831.47;;;12.00;71.42
43701;BME280;58809;47.984;7.964;2022-12-29T14:56:09;96850.44;;;12.03;70.89
43701;BME280;58809;47.984;7.964;2022-12-29T14:59:11;96856.97;;;12.01;70.69
43701;BME280;58809;47.984;7.964;2022-12-29T15:02:19;96858.63;;;12.02;70.82
43701;BME280;58809;47.984;7.964;2022-12-29T15:05:30;96842.91;;;12.00;71.23
43701;BME280;58809;47.984;7.964;2022-12-29T15:08:42;96849.41;;;11.91;71.59
43701;BME280;58809;47.984;7.964;2022-12-29T15:11:53;96844.44;;;11.88;71.81
43701;BME280;58809;47.984;7.964;2022-12-29T15:14:57;96863.81;;;11.88;72.28
43701;BME280;58809;47.984;7.964;2022-12-29T15:18:21;96862.38;;;11.86;72.69
43701;BME280;58809;47.984;7.964;2022-12-29T15:21:26;96870.72;;;11.83;72.81
43701;BME280;58809;47.984;7.964;2022-12-29T15:24:28;96883.75;;;11.78;73.80
43701;BME280;58809;47.984;7.964;2022-12-29T15:27:31;96888.59;;;11.67;75.22
43701;BME280;58809;47.984;7.964;2022-12-29T15:30:33;96889.72;;;11.45;78.29
43701;BME280;58809;47.984;7.964;2022-12-29T15:33:37;96876.84;;;11.13;83.41
43701;BME280;58809;47.984;7.964;2022-12-29T15:36:40;96875.13;;;10.99;84.65
43701;BME280;58809;47.984;7.964;2022-12-29T15:39:42;96868.16;;;10.98;82.93
43701;BME280;58809;47.984;7.964;2022-12-29T15:43:04;96861.53;;;11.09;80.34
43701;BME280;58809;47.984;7.964;2022-12-29T15:46:10;96842.84;;;11.17;79.95
43701;BME280;58809;47.984;7.964;2022-12-29T15:49:14;96875.25;;;11.19;81.93
43701;BME280;58809;47.984;7.964;2022-12-29T15:52:21;96853.94;;;10.99;86.21
43701;BME280;58809;47.984;7.964;2022-12-29T15:55:37;96854.16;;;10.76;87.78
43701;BME280;58809;47.984;7.964;2022-12-29T15:58:48;96876.97;;;10.77;88.32
43701;BME280;58809;47.984;7.964;2022-12-29T16:01:52;96869.25;;;10.82;85.98
43701;BME280;58809;47.984;7.964;2022-12-29T16:04:54;96873.19;;;10.86;85.72
43701;BME280;58809;47.984;7.964;2022-12-29T16:11:31;96880.47;;;10.84;86.67
43701;BME280;58809;47.984;7.964;2022-12-29T16:15:06;96880.28;;;10.86;85.95
43701;BME280;58809;47.984;7.964;2022-12-29T16:18:25;96872.53;;;10.84;86.51
43701;BME280;58809;47.984;7.964;2022-12-29T16:21:32;96871.38;;;10.93;85.13
43701;BME280;58809;47.984;7.964;2022-12-29T16:24:37;96875.88;;;10.93;84.44
43701;BME280;58809;47.984;7.964;2022-12-29T16:27:41;96875.06;;;10.92;83.46
43701;BME280;58809;47.984;7.964;2022-12-29T16:30:44;96875.31;;;10.97;82.94
43701;BME280;58809;47.984;7.964;2022-12-29T16:40:29;96881.25;;;11.06;81.14
43701;BME280;58809;47.984;7.964;2022-12-29T16:43:35;96871.09;;;11.10;80.18
43701;BME280;58809;47.984;7.964;2022-12-29T16:50:17;96899.59;;;11.08;81.13
43701;BME280;58809;47.984;7.964;2022-12-29T16:53:39;96897.34;;;11.05;81.13
43701;BME280;58809;47.984;7.964;2022-12-29T16:56:43;96909.72;;;10.97;81.95
43701;BME280;58809;47.984;7.964;2022-12-29T16:59:46;96890.84;;;10.79;83.97
43701;BME280;58809;47.984;7.964;2022-12-29T17:03:03;96895.59;;;10.47;86.85
43701;BME280;58809;47.984;7.964;2022-12-29T17:06:20;96913.75;;;10.50;88.10
43701;BME280;58809;47.984;7.964;2022-12-29T17:09:25;96916.56;;;10.49;89.08
43701;BME280;58809;47.984;7.964;2022-12-29T17:12:28;96892.59;;;10.50;88.15
43701;BME280;58809;47.984;7.964;2022-12-29T17:15:31;96909.84;;;10.46;89.34
43701;BME280;58809;47.984;7.964;2022-12-29T17:18:37;96907.47;;;10.36;92.21
43701;BME280;58809;47.984;7.964;2022-12-29T17:21:53;96908.69;;;10.34;93.58
43701;BME280;58809;47.984;7.964;2022-12-29T17:24:57;96900.13;;;10.32;93.07
43701;BME280;58809;47.984;7.964;2022-12-29T17:28:03;96883.31;;;10.25;92.60
43701;BME280;58809;47.984;7.964;2022-12-29T17:31:08;96899.31;;;10.31;92.03
43701;BME280;58809;47.984;7.964;2022-12-29T17:34:12;96901.81;;;10.39;90.66
43701;BME280;58809;47.984;7.964;2022-12-29T17:40:30;96905.75;;;10.29;95.45
43701;BME280;58809;47.984;7.964;2022-12-29T17:43:33;96905.47;;;10.24;96.35
43701;BME280;58809;47.984;7.964;2022-12-29T17:46:37;96899.28;;;10.16;96.76
43701;BME280;58809;47.984;7.964;2022-12-29T17:49:39;96902.59;;;10.18;97.96
43701;BME280;58809;47.984;7.964;2022-12-29T17:52:42;96905.69;;;10.22;96.98
43701;BME280;58809;47.984;7.964;2022-12-29T17:55:44;96896.91;;;10.21;96.61
43701;BME280;58809;47.984;7.964;2022-12-29T17:58:46;96895.91;;;10.23;95.80
43701;BME280;58809;47.984;7.964;2022-12-29T18:01:48;96890.63;;;10.23;94.38
43701;BME280;58809;47.984;7.964;2022-12-29T18:04:51;96900.81;;;10.26;94.55
43701;BME280;58809;47.984;7.964;2022-12-29T18:07:55;96901.66;;;10.26;94.32
43701;BME280;58809;47.984;7.964;2022-12-29T18:10:57;96898.47;;;10.31;93.41
43701;BME280;58809;47.984;7.964;2022-12-29T18:13:59;96903.22;;;10.35;92.29
43701;BME280;58809;47.984;7.964;2022-12-29T18:17:03;96896.72;;;10.38;91.23
43701;BME280;58809;47.984;7.964;2022-12-29T18:20:09;96900.16;;;10.38;91.01
43701;BME280;58809;47.984;7.964;2022-12-29T18:23:21;96894.97;;;10.45;90.13
43701;BME280;58809;47.984;7.964;2022-12-29T18:26:24;96893.97;;;10.46;88.73
43701;BME280;58809;47.984;7.964;2022-12-29T18:29:29;96897.50;;;10.53;87.41